Overseas Luzon — V7NE5 — position and weather

sailwx.info

Track history (hours):
 
Tides and Currents Weather Stations Pressure Air Temp Water Temp Dewpoint Dewpoint Depression Visibility Wind Speed Wind Dir Waves Ship Positions

Overseas Luzon

Last reported at 2016-Jul-08 11:26 UTC. Time now 2016-Jul-23 11:12 UTC.
Position N 31°23' W 117°15'.
Warning: this ship's position is 14 days out of date.

Length 228 m; draft 8.4 m.

Type: Tanker. MMSI: 538002946.

Date/timePositionNaut miles runAvg speedWind from/ knotsBaromVisibWave heightAir tempDewpointWater temp
2016-Jul-08 11:26N 31°23' W 117°15'3013.8
2016-Jul-08 09:15N 31°51' W 117°25'1013.8
2016-Jul-08 08:33N 32°01' W 117°28'7 7.1
2016-Jul-08 07:33N 32°08' W 117°30'1414.0
2016-Jul-08 06:33N 32°21' W 117°35'2713.6
2016-Jul-08 04:34N 32°46' W 117°47'1414.0
2016-Jul-08 03:33N 32°58' W 117°55'1413.6
2016-Jul-08 02:33N 33°11' W 118°02'1010.4
2016-Jul-08 01:33N 33°20' W 118°07'1110.9
2016-Jul-08 00:30N 33°31' W 118°11'1010.4
2016-Jul-07 23:32N 33°41' W 118°11'3 1.1
2016-Jul-07 20:30N 33°44' W 118°13'0 0.1
2016-Jul-07 19:30N 33°44' W 118°13'0 0.1
2016-Jul-07 18:30N 33°44' W 118°13'0 0.0
2016-Jul-07 17:33N 33°44' W 118°13'0 0.1
2016-Jul-07 16:24N 33°44' W 118°13'0 0.1
2016-Jul-07 15:24N 33°44' W 118°13'0 0.0
2016-Jul-07 14:33N 33°44' W 118°13'0 0.0
2016-Jul-07 13:30N 33°44' W 118°13'0 0.1
2016-Jul-07 12:30N 33°44' W 118°13'0 0.0
2016-Jul-07 11:24N 33°44' W 118°13'0 0.1
2016-Jul-07 10:30N 33°44' W 118°13'0 0.0
2016-Jul-07 09:15N 33°44' W 118°13'0 0.0
2016-Jul-07 08:24N 33°44' W 118°13'0 0.1
2016-Jul-07 07:24N 33°44' W 118°13'0 0.0
2016-Jul-07 06:30N 33°44' W 118°13'0 0.0
2016-Jul-07 04:30N 33°44' W 118°13'0 0.0
2016-Jul-07 03:33N 33°44' W 118°13'0 0.0
2016-Jul-07 02:06N 33°44' W 118°13'0 0.0
2016-Jul-07 01:30N 33°44' W 118°13'0 0.0
2016-Jul-07 00:30N 33°44' W 118°13'0 0.0
2016-Jul-06 19:12N 33°44' W 118°13'0 0.1
2016-Jul-06 18:33N 33°44' W 118°13'0 0.0
2016-Jul-06 15:30N 33°44' W 118°13'0 0.0
2016-Jul-06 14:30N 33°44' W 118°13'0 0.0
2016-Jul-06 11:30N 33°44' W 118°13'0 0.1
2016-Jul-06 09:24N 33°44' W 118°13'0 0.0
2016-Jul-06 04:33N 33°44' W 118°13'0 0.0
2016-Jul-05 23:18N 33°44' W 118°13'0 0.0
2016-Jul-05 22:18N 33°44' W 118°13'0 0.0
2016-Jul-05 15:06N 33°44' W 118°13'0 0.0
2016-Jul-05 14:30N 33°44' W 118°13'1 0.2
2016-Jul-05 09:11N 33°44' W 118°12'6 6.4
2016-Jul-05 08:18N 33°38' W 118°12'5 7.0
2016-Jul-05 07:33N 33°36' W 118°18'3110.5
2016-Jul-05 04:32N 33°50' W 118°52'1110.7
2016-Jul-05 03:30N 33°54' W 119°04'7 7.5
2016-Jul-05 02:33N 33°59' W 119°10'1211.9
2016-Jul-05 01:33N 34°04' W 119°23'1414.4
2016-Jul-05 00:34N 34°08' W 119°40'1815.0
2016-Jul-04 23:22N 34°13' W 120°01'1715.3
2016-Jul-04 22:13N 34°17' W 120°21'5214.0
2016-Jul-04 18:30N 34°45' W 121°14'1414.3
2016-Jul-04 17:33N 34°56' W 121°24'1515.3
2016-Jul-04 16:33N 35°08' W 121°36'1515.0
2016-Jul-04 15:33N 35°20' W 121°47'1414.3
2016-Jul-04 14:33N 35°31' W 121°57'1515.0
2016-Jul-04 13:33N 35°43' W 122°09'1514.9
2016-Jul-04 12:33N 35°56' W 122°18'1515.4
2016-Jul-04 11:33N 36°10' W 122°26'1515.0
2016-Jul-04 10:33N 36°23' W 122°34'1515.0
2016-Jul-04 09:33N 36°37' W 122°42'1414.4
2016-Jul-04 08:33N 36°50' W 122°49'1514.8
2016-Jul-04 07:33N 37°04' W 122°57'1514.6
2016-Jul-04 06:33N 37°17' W 123°04'1413.6
2016-Jul-04 05:33N 37°30' W 123°08'1413.9
2016-Jul-04 04:34N 37°39' W 122°54'1312.9
2016-Jul-04 03:33N 37°45' W 122°40'1312.6
2016-Jul-04 02:33N 37°51' W 122°25'1212.3
2016-Jul-04 01:33N 38°02' W 122°21'11 0.4
2016-Jul-02 21:29N 38°02' W 122°08'0 0.0
2016-Jul-02 20:30N 38°02' W 122°08'5 5.5
2016-Jul-02 19:33N 38°04' W 122°14'1010.1
2016-Jul-02 18:33N 37°59' W 122°25'1110.5
2016-Jul-02 17:33N 37°49' W 122°23'4 4.1
2016-Jul-02 16:32N 37°45' W 122°21'0 0.0
2016-Jul-02 15:32N 37°45' W 122°21'0 0.0
2016-Jul-02 14:29N 37°45' W 122°21'0 0.1
2016-Jul-02 13:32N 37°45' W 122°21'0 0.2
2016-Jul-02 12:32N 37°46' W 122°21'0 0.0
2016-Jul-02 11:32N 37°46' W 122°21'0 0.0
2016-Jul-02 10:32N 37°46' W 122°21'0 0.0
2016-Jul-02 09:32N 37°46' W 122°21'0 0.0
2016-Jul-02 08:32N 37°46' W 122°21'0 0.0
2016-Jul-02 07:32N 37°46' W 122°21'0 0.1
2016-Jul-02 06:32N 37°46' W 122°21'0 0.1
2016-Jul-02 04:32N 37°45' W 122°21'0 0.0
2016-Jul-02 03:32N 37°45' W 122°21'0 0.0
2016-Jul-02 02:29N 37°45' W 122°21'0 0.0
2016-Jul-02 01:32N 37°45' W 122°21'0 0.1
2016-Jul-02 00:32N 37°46' W 122°21'0 0.0
2016-Jul-01 23:32N 37°46' W 122°21'0 0.2
2016-Jul-01 22:32N 37°46' W 122°21'0 0.0
2016-Jul-01 21:32N 37°46' W 122°21'0 0.0
2016-Jul-01 20:32N 37°46' W 122°21'0 0.1
2016-Jul-01 19:29N 37°46' W 122°21'0 0.1
2016-Jul-01 18:32N 37°46' W 122°21'0 0.1
2016-Jul-01 17:32N 37°45' W 122°21'0 0.0
2016-Jul-01 16:32N 37°45' W 122°21'0 0.0
2016-Jul-01 15:32N 37°45' W 122°21'0 0.0
2016-Jul-01 14:32N 37°45' W 122°21'0 0.1
2016-Jul-01 13:32N 37°45' W 122°21'0 0.1
2016-Jul-01 12:32N 37°46' W 122°21'0 0.2
2016-Jul-01 11:32N 37°46' W 122°21'0 0.0
2016-Jul-01 10:32N 37°46' W 122°21'0 0.0
2016-Jul-01 09:32N 37°46' W 122°21'0 0.0
2016-Jul-01 08:32N 37°46' W 122°21'0 0.0
2016-Jul-01 07:29N 37°46' W 122°21'0 0.0
2016-Jul-01 06:32N 37°46' W 122°21'0 0.1
2016-Jul-01 05:32N 37°46' W 122°21'0 0.2
2016-Jul-01 04:32N 37°45' W 122°20'0 0.1
2016-Jul-01 03:32N 37°45' W 122°21'0 0.1
2016-Jul-01 02:32N 37°45' W 122°21'0 0.0
2016-Jul-01 01:32N 37°45' W 122°21'0 0.0
2016-Jul-01 00:32N 37°45' W 122°21'0 0.0
2016-Jun-30 23:29N 37°45' W 122°21'0 0.2
2016-Jun-30 22:32N 37°46' W 122°21'0 0.1
2016-Jun-30 21:32N 37°46' W 122°21'0 0.0
2016-Jun-30 20:32N 37°46' W 122°21'0 0.0
2016-Jun-30 19:32N 37°46' W 122°21'0 0.0
2016-Jun-30 18:29N 37°46' W 122°21'0 0.2
2016-Jun-30 17:32N 37°45' W 122°21'0 0.1
2016-Jun-30 16:32N 37°45' W 122°21'0 0.0
2016-Jun-30 15:29N 37°45' W 122°21'0 0.0
2016-Jun-30 14:32N 37°45' W 122°21'0 0.0
2016-Jun-30 13:32N 37°45' W 122°21'0 0.1
2016-Jun-30 12:32N 37°46' W 122°20'9 9.0
2016-Jun-30 11:32N 37°53' W 122°26'10 9.9
2016-Jun-30 10:33N 38°02' W 122°21'11 0.7
2016-Jun-29 18:28N 38°02' W 122°08'5 5.4
2016-Jun-29 17:33N 38°04' W 122°14'1010.2
2016-Jun-29 16:33N 37°59' W 122°25'10 9.6
2016-Jun-29 15:33N 37°50' W 122°24'5 4.8
2016-Jun-29 14:31N 37°45' W 122°21'0 0.1
2016-Jun-29 13:31N 37°45' W 122°21'0 0.0
2016-Jun-29 12:31N 37°45' W 122°21'0 0.0
2016-Jun-29 11:31N 37°45' W 122°21'0 0.1
2016-Jun-29 10:31N 37°45' W 122°21'0 0.1
2016-Jun-29 09:31N 37°46' W 122°21'0 0.1
2016-Jun-29 08:34N 37°46' W 122°21'0 0.0
2016-Jun-29 07:31N 37°46' W 122°21'0 0.0
2016-Jun-29 06:31N 37°46' W 122°21'0 0.0
2016-Jun-29 05:31N 37°46' W 122°21'0 0.0
2016-Jun-29 04:31N 37°46' W 122°21'0 0.1
2016-Jun-29 03:31N 37°46' W 122°21'0 0.2
2016-Jun-29 02:31N 37°45' W 122°21'0 0.0
2016-Jun-29 01:31N 37°45' W 122°21'0 0.0
2016-Jun-29 00:31N 37°45' W 122°21'0 0.0
2016-Jun-28 23:31N 37°45' W 122°21'0 0.0
2016-Jun-28 22:31N 37°45' W 122°21'0 0.1
2016-Jun-28 21:31N 37°45' W 122°21'0 0.1
2016-Jun-28 20:31N 37°46' W 122°21'0 0.1
2016-Jun-28 19:31N 37°46' W 122°21'0 0.0
2016-Jun-28 18:31N 37°46' W 122°21'0 0.0
2016-Jun-28 17:31N 37°46' W 122°21'0 0.1
2016-Jun-28 16:34N 37°46' W 122°21'0 0.1
2016-Jun-28 15:31N 37°46' W 122°21'0 0.1
2016-Jun-28 14:31N 37°45' W 122°21'0 0.1
2016-Jun-28 13:31N 37°45' W 122°21'0 0.1
2016-Jun-28 12:33N 37°45' W 122°21'8 8.2
2016-Jun-28 11:33N 37°53' W 122°25'  
Track history (hours):
 
Tides and Currents Weather Stations Pressure Air Temp Water Temp Dewpoint Dewpoint Depression Visibility Wind Speed Wind Dir Waves Ship Positions

Overseas Luzon

Last reported at 2016-Jul-08 11:26 UTC. Time now 2016-Jul-23 11:12 UTC.
Position N 31°23' W 117°15'.
Warning: this ship's position is 14 days out of date.

Length 228 m; draft 8.4 m.

Type: Tanker. MMSI: 538002946.

Date/timePositionNaut miles runAvg speedWind from/ knotsBaromVisibWave heightAir tempDewpointWater temp
2016-Jul-08 11:26N 31°23' W 117°15'3013.8
2016-Jul-08 09:15N 31°51' W 117°25'1013.8
2016-Jul-08 08:33N 32°01' W 117°28'7 7.1
2016-Jul-08 07:33N 32°08' W 117°30'1414.0
2016-Jul-08 06:33N 32°21' W 117°35'2713.6
2016-Jul-08 04:34N 32°46' W 117°47'1414.0
2016-Jul-08 03:33N 32°58' W 117°55'1413.6
2016-Jul-08 02:33N 33°11' W 118°02'1010.4
2016-Jul-08 01:33N 33°20' W 118°07'1110.9
2016-Jul-08 00:30N 33°31' W 118°11'1010.4
2016-Jul-07 23:32N 33°41' W 118°11'3 1.1
2016-Jul-07 20:30N 33°44' W 118°13'0 0.1
2016-Jul-07 19:30N 33°44' W 118°13'0 0.1
2016-Jul-07 18:30N 33°44' W 118°13'0 0.0
2016-Jul-07 17:33N 33°44' W 118°13'0 0.1
2016-Jul-07 16:24N 33°44' W 118°13'0 0.1
2016-Jul-07 15:24N 33°44' W 118°13'0 0.0
2016-Jul-07 14:33N 33°44' W 118°13'0 0.0
2016-Jul-07 13:30N 33°44' W 118°13'0 0.1
2016-Jul-07 12:30N 33°44' W 118°13'0 0.0
2016-Jul-07 11:24N 33°44' W 118°13'0 0.1
2016-Jul-07 10:30N 33°44' W 118°13'0 0.0
2016-Jul-07 09:15N 33°44' W 118°13'0 0.0
2016-Jul-07 08:24N 33°44' W 118°13'0 0.1
2016-Jul-07 07:24N 33°44' W 118°13'0 0.0
2016-Jul-07 06:30N 33°44' W 118°13'0 0.0
2016-Jul-07 04:30N 33°44' W 118°13'0 0.0
2016-Jul-07 03:33N 33°44' W 118°13'0 0.0
2016-Jul-07 02:06N 33°44' W 118°13'0 0.0
2016-Jul-07 01:30N 33°44' W 118°13'0 0.0
2016-Jul-07 00:30N 33°44' W 118°13'0 0.0
2016-Jul-06 19:12N 33°44' W 118°13'0 0.1
2016-Jul-06 18:33N 33°44' W 118°13'0 0.0
2016-Jul-06 15:30N 33°44' W 118°13'0 0.0
2016-Jul-06 14:30N 33°44' W 118°13'0 0.0
2016-Jul-06 11:30N 33°44' W 118°13'0 0.1
2016-Jul-06 09:24N 33°44' W 118°13'0 0.0
2016-Jul-06 04:33N 33°44' W 118°13'0 0.0
2016-Jul-05 23:18N 33°44' W 118°13'0 0.0
2016-Jul-05 22:18N 33°44' W 118°13'0 0.0
2016-Jul-05 15:06N 33°44' W 118°13'0 0.0
2016-Jul-05 14:30N 33°44' W 118°13'1 0.2
2016-Jul-05 09:11N 33°44' W 118°12'6 6.4
2016-Jul-05 08:18N 33°38' W 118°12'5 7.0
2016-Jul-05 07:33N 33°36' W 118°18'3110.5
2016-Jul-05 04:32N 33°50' W 118°52'1110.7
2016-Jul-05 03:30N 33°54' W 119°04'7 7.5
2016-Jul-05 02:33N 33°59' W 119°10'1211.9
2016-Jul-05 01:33N 34°04' W 119°23'1414.4
2016-Jul-05 00:34N 34°08' W 119°40'1815.0
2016-Jul-04 23:22N 34°13' W 120°01'1715.3
2016-Jul-04 22:13N 34°17' W 120°21'5214.0
2016-Jul-04 18:30N 34°45' W 121°14'1414.3
2016-Jul-04 17:33N 34°56' W 121°24'1515.3
2016-Jul-04 16:33N 35°08' W 121°36'1515.0
2016-Jul-04 15:33N 35°20' W 121°47'1414.3
2016-Jul-04 14:33N 35°31' W 121°57'1515.0
2016-Jul-04 13:33N 35°43' W 122°09'1514.9
2016-Jul-04 12:33N 35°56' W 122°18'1515.4
2016-Jul-04 11:33N 36°10' W 122°26'1515.0
2016-Jul-04 10:33N 36°23' W 122°34'1515.0
2016-Jul-04 09:33N 36°37' W 122°42'1414.4
2016-Jul-04 08:33N 36°50' W 122°49'1514.8
2016-Jul-04 07:33N 37°04' W 122°57'1514.6
2016-Jul-04 06:33N 37°17' W 123°04'1413.6
2016-Jul-04 05:33N 37°30' W 123°08'1413.9
2016-Jul-04 04:34N 37°39' W 122°54'1312.9
2016-Jul-04 03:33N 37°45' W 122°40'1312.6
2016-Jul-04 02:33N 37°51' W 122°25'1212.3
2016-Jul-04 01:33N 38°02' W 122°21'11 0.4
2016-Jul-02 21:29N 38°02' W 122°08'0 0.0
2016-Jul-02 20:30N 38°02' W 122°08'5 5.5
2016-Jul-02 19:33N 38°04' W 122°14'1010.1
2016-Jul-02 18:33N 37°59' W 122°25'1110.5
2016-Jul-02 17:33N 37°49' W 122°23'4 4.1
2016-Jul-02 16:32N 37°45' W 122°21'0 0.0
2016-Jul-02 15:32N 37°45' W 122°21'0 0.0
2016-Jul-02 14:29N 37°45' W 122°21'0 0.1
2016-Jul-02 13:32N 37°45' W 122°21'0 0.2
2016-Jul-02 12:32N 37°46' W 122°21'0 0.0
2016-Jul-02 11:32N 37°46' W 122°21'0 0.0
2016-Jul-02 10:32N 37°46' W 122°21'0 0.0
2016-Jul-02 09:32N 37°46' W 122°21'0 0.0
2016-Jul-02 08:32N 37°46' W 122°21'0 0.0
2016-Jul-02 07:32N 37°46' W 122°21'0 0.1
2016-Jul-02 06:32N 37°46' W 122°21'0 0.1
2016-Jul-02 04:32N 37°45' W 122°21'0 0.0
2016-Jul-02 03:32N 37°45' W 122°21'0 0.0
2016-Jul-02 02:29N 37°45' W 122°21'0 0.0
2016-Jul-02 01:32N 37°45' W 122°21'0 0.1
2016-Jul-02 00:32N 37°46' W 122°21'0 0.0
2016-Jul-01 23:32N 37°46' W 122°21'0 0.2
2016-Jul-01 22:32N 37°46' W 122°21'0 0.0
2016-Jul-01 21:32N 37°46' W 122°21'0 0.0
2016-Jul-01 20:32N 37°46' W 122°21'0 0.1
2016-Jul-01 19:29N 37°46' W 122°21'0 0.1
2016-Jul-01 18:32N 37°46' W 122°21'0 0.1
2016-Jul-01 17:32N 37°45' W 122°21'0 0.0
2016-Jul-01 16:32N 37°45' W 122°21'0 0.0
2016-Jul-01 15:32N 37°45' W 122°21'0 0.0
2016-Jul-01 14:32N 37°45' W 122°21'0 0.1
2016-Jul-01 13:32N 37°45' W 122°21'0 0.1
2016-Jul-01 12:32N 37°46' W 122°21'0 0.2
2016-Jul-01 11:32N 37°46' W 122°21'0 0.0
2016-Jul-01 10:32N 37°46' W 122°21'0 0.0
2016-Jul-01 09:32N 37°46' W 122°21'0 0.0
2016-Jul-01 08:32N 37°46' W 122°21'0 0.0
2016-Jul-01 07:29N 37°46' W 122°21'0 0.0
2016-Jul-01 06:32N 37°46' W 122°21'0 0.1
2016-Jul-01 05:32N 37°46' W 122°21'0 0.2
2016-Jul-01 04:32N 37°45' W 122°20'0 0.1
2016-Jul-01 03:32N 37°45' W 122°21'0 0.1
2016-Jul-01 02:32N 37°45' W 122°21'0 0.0
2016-Jul-01 01:32N 37°45' W 122°21'0 0.0
2016-Jul-01 00:32N 37°45' W 122°21'0 0.0
2016-Jun-30 23:29N 37°45' W 122°21'0 0.2
2016-Jun-30 22:32N 37°46' W 122°21'0 0.1
2016-Jun-30 21:32N 37°46' W 122°21'0 0.0
2016-Jun-30 20:32N 37°46' W 122°21'0 0.0
2016-Jun-30 19:32N 37°46' W 122°21'0 0.0
2016-Jun-30 18:29N 37°46' W 122°21'0 0.2
2016-Jun-30 17:32N 37°45' W 122°21'0 0.1
2016-Jun-30 16:32N 37°45' W 122°21'0 0.0
2016-Jun-30 15:29N 37°45' W 122°21'0 0.0
2016-Jun-30 14:32N 37°45' W 122°21'0 0.0
2016-Jun-30 13:32N 37°45' W 122°21'0 0.1
2016-Jun-30 12:32N 37°46' W 122°20'9 9.0
2016-Jun-30 11:32N 37°53' W 122°26'10 9.9
2016-Jun-30 10:33N 38°02' W 122°21'11 0.7
2016-Jun-29 18:28N 38°02' W 122°08'5 5.4
2016-Jun-29 17:33N 38°04' W 122°14'1010.2
2016-Jun-29 16:33N 37°59' W 122°25'10 9.6
2016-Jun-29 15:33N 37°50' W 122°24'5 4.8
2016-Jun-29 14:31N 37°45' W 122°21'0 0.1
2016-Jun-29 13:31N 37°45' W 122°21'0 0.0
2016-Jun-29 12:31N 37°45' W 122°21'0 0.0
2016-Jun-29 11:31N 37°45' W 122°21'0 0.1
2016-Jun-29 10:31N 37°45' W 122°21'0 0.1
2016-Jun-29 09:31N 37°46' W 122°21'0 0.1
2016-Jun-29 08:34N 37°46' W 122°21'0 0.0
2016-Jun-29 07:31N 37°46' W 122°21'0 0.0
2016-Jun-29 06:31N 37°46' W 122°21'0 0.0
2016-Jun-29 05:31N 37°46' W 122°21'0 0.0
2016-Jun-29 04:31N 37°46' W 122°21'0 0.1
2016-Jun-29 03:31N 37°46' W 122°21'0 0.2
2016-Jun-29 02:31N 37°45' W 122°21'0 0.0
2016-Jun-29 01:31N 37°45' W 122°21'0 0.0
2016-Jun-29 00:31N 37°45' W 122°21'0 0.0
2016-Jun-28 23:31N 37°45' W 122°21'0 0.0
2016-Jun-28 22:31N 37°45' W 122°21'0 0.1
2016-Jun-28 21:31N 37°45' W 122°21'0 0.1
2016-Jun-28 20:31N 37°46' W 122°21'0 0.1
2016-Jun-28 19:31N 37°46' W 122°21'0 0.0
2016-Jun-28 18:31N 37°46' W 122°21'0 0.0
2016-Jun-28 17:31N 37°46' W 122°21'0 0.1
2016-Jun-28 16:34N 37°46' W 122°21'0 0.1
2016-Jun-28 15:31N 37°46' W 122°21'0 0.1
2016-Jun-28 14:31N 37°45' W 122°21'0 0.1
2016-Jun-28 13:31N 37°45' W 122°21'0 0.1
2016-Jun-28 12:33N 37°45' W 122°21'8 8.2
2016-Jun-28 11:33N 37°53' W 122°25'  

Dump ship's entire track history